createdAt,value
2023-08-29T00:03:07.730Z,20.04
2023-08-29T00:08:10.417Z,20.21
2023-08-29T00:13:13.286Z,20.05
2023-08-29T00:18:15.508Z,20.07
2023-08-29T00:23:18.253Z,19.74
2023-08-29T00:28:20.995Z,19.78
2023-08-29T00:33:23.812Z,19.85
2023-08-29T00:38:26.502Z,19.75
2023-08-29T00:43:29.540Z,19.62
2023-08-29T00:48:33.089Z,19.67
2023-08-29T00:53:38.625Z,19.59
2023-08-29T00:58:41.422Z,19.56
2023-08-29T01:03:44.516Z,19.47
2023-08-29T01:08:47.285Z,19.17
2023-08-29T01:14:24.442Z,19.45
2023-08-29T01:19:27.904Z,19.85
2023-08-29T01:25:08.113Z,19.99
2023-08-29T01:30:12.044Z,21.42
2023-08-29T01:35:16.906Z,22.66
2023-08-29T01:40:19.579Z,22.87
2023-08-29T01:45:22.335Z,22.47
2023-08-29T01:50:26.098Z,21.83
2023-08-29T01:55:30.380Z,21.34
2023-08-29T02:00:33.390Z,21.73
2023-08-29T02:05:36.151Z,21.69
2023-08-29T02:10:38.831Z,21.52
2023-08-29T02:15:41.403Z,20.94
2023-08-29T02:20:44.575Z,20.78
2023-08-29T02:25:46.776Z,20.83
2023-08-29T02:30:49.396Z,20.60
2023-08-29T02:35:52.185Z,20.23
2023-08-29T02:40:55.032Z,19.95
2023-08-29T02:45:58.138Z,19.50
2023-08-29T02:51:00.880Z,19.10
2023-08-29T02:56:03.657Z,18.87
2023-08-29T03:01:11.175Z,18.46
2023-08-29T03:06:13.892Z,18.40
2023-08-29T03:11:16.729Z,18.03
2023-08-29T03:16:20.637Z,18.20
2023-08-29T03:21:23.323Z,18.11
2023-08-29T03:26:26.203Z,18.10
2023-08-29T03:31:29.078Z,17.87
2023-08-29T03:36:31.819Z,17.65
2023-08-29T03:41:34.586Z,17.70
2023-08-29T03:46:37.587Z,17.76
2023-08-29T03:51:40.345Z,17.64
2023-08-29T03:56:44.872Z,17.52
2023-08-29T04:01:47.806Z,17.78
2023-08-29T04:06:50.671Z,17.69
2023-08-29T04:11:53.333Z,17.83
2023-08-29T04:16:57.207Z,17.74
2023-08-29T04:22:00.340Z,17.74
2023-08-29T04:27:02.760Z,17.83
2023-08-29T04:32:06.050Z,17.50
2023-08-29T04:37:08.932Z,17.72
2023-08-29T04:42:11.979Z,17.88
2023-08-29T04:47:14.696Z,17.69
2023-08-29T04:52:17.442Z,17.71
2023-08-29T04:57:20.240Z,17.76
2023-08-29T05:02:23.664Z,17.86
2023-08-29T05:07:27.393Z,18.04
2023-08-29T05:12:30.158Z,18.13
2023-08-29T05:17:32.396Z,18.65
2023-08-29T05:22:35.306Z,19.51
2023-08-29T05:27:38.428Z,21.31
2023-08-29T05:32:41.132Z,23.07
2023-08-29T05:37:43.363Z,25.17
2023-08-29T05:42:46.019Z,28.56
2023-08-29T05:47:48.617Z,31.99
2023-08-29T05:52:51.452Z,33.86
2023-08-29T05:57:54.152Z,34.79
2023-08-29T06:02:56.927Z,36.98
2023-08-29T06:08:16.863Z,38.92
2023-08-29T06:13:22.245Z,39.43
2023-08-29T06:18:25.540Z,39.34
2023-08-29T06:23:28.385Z,39.48
2023-08-29T06:28:32.119Z,38.04
2023-08-29T06:33:35.851Z,39.89
2023-08-29T06:38:40.513Z,38.36
2023-08-29T06:43:42.908Z,40.94
2023-08-29T06:48:45.581Z,40.99
2023-08-29T06:53:47.802Z,40.37
2023-08-29T06:58:50.830Z,40.59
2023-08-29T07:03:54.569Z,39.35
2023-08-29T07:08:57.348Z,39.62
2023-08-29T07:14:00.098Z,39.96
2023-08-29T07:19:03.156Z,37.89
2023-08-29T07:24:06.148Z,37.07
2023-08-29T07:29:08.378Z,37.35
2023-08-29T07:34:13.088Z,36.02
2023-08-29T07:39:19.277Z,36.71
2023-08-29T07:44:21.651Z,36.08
2023-08-29T07:49:24.304Z,36.63
2023-08-29T07:54:26.602Z,36.34
2023-08-29T07:59:29.448Z,36.70
2023-08-29T08:04:32.321Z,35.72
2023-08-29T08:09:34.974Z,36.12
2023-08-29T08:14:37.661Z,35.44
2023-08-29T08:19:40.455Z,36.78
2023-08-29T08:24:42.844Z,36.47
2023-08-29T08:29:45.664Z,35.59
2023-08-29T08:34:48.441Z,35.43
2023-08-29T08:39:50.812Z,35.63
2023-08-29T08:44:53.920Z,35.56
2023-08-29T08:49:56.653Z,34.85
2023-08-29T08:54:59.412Z,36.17
2023-08-29T09:00:01.614Z,35.93
2023-08-29T09:05:04.903Z,35.60
2023-08-29T09:10:12.043Z,35.39
2023-08-29T09:15:17.974Z,35.91
2023-08-29T09:20:21.568Z,35.60
2023-08-29T09:25:27.932Z,36.18
2023-08-29T09:30:30.925Z,35.60
2023-08-29T09:35:35.558Z,35.18
2023-08-29T09:40:51.623Z,35.51
2023-08-29T09:45:55.270Z,35.71
2023-08-29T09:51:00.320Z,36.07
2023-08-29T09:56:11.319Z,35.50
2023-08-29T10:01:15.000Z,35.43
2023-08-29T10:06:19.884Z,35.86
2023-08-29T10:11:23.433Z,36.07
2023-08-29T10:16:27.474Z,36.02
2023-08-29T10:21:31.279Z,34.90
2023-08-29T10:26:35.099Z,35.25
2023-08-29T10:31:38.120Z,36.18
2023-08-29T10:36:41.059Z,35.75
2023-08-29T10:41:48.154Z,35.60
2023-08-29T10:46:54.384Z,35.86
2023-08-29T10:52:20.014Z,34.90
2023-08-29T10:57:30.844Z,35.62
2023-08-29T11:02:33.313Z,35.52
2023-08-29T11:07:36.437Z,35.29
2023-08-29T11:13:09.476Z,34.92
2023-08-29T11:18:30.183Z,35.16
2023-08-29T11:23:36.405Z,34.52
2023-08-29T11:28:44.275Z,34.76
2023-08-29T11:33:48.236Z,35.31
2023-08-29T11:38:52.715Z,35.68
2023-08-29T11:44:26.419Z,35.25
2023-08-29T11:49:20.610Z,35.83
2023-08-29T11:54:47.130Z,36.34
2023-08-29T11:59:53.620Z,35.56
2023-08-29T12:04:58.220Z,34.94
2023-08-29T12:10:11.904Z,34.06
2023-08-29T12:15:24.227Z,33.55
2023-08-29T12:20:35.168Z,33.55
2023-08-29T12:25:37.631Z,33.28
2023-08-29T12:30:40.458Z,33.27
2023-08-29T12:35:42.676Z,32.87
2023-08-29T12:40:45.598Z,33.02
2023-08-29T12:45:58.361Z,33.08
2023-08-29T12:51:03.705Z,33.13
2023-08-29T12:56:08.171Z,33.08
2023-08-29T13:01:12.300Z,32.96
2023-08-29T13:06:33.454Z,33.07
2023-08-29T13:11:36.157Z,33.24
2023-08-29T13:16:39.047Z,33.25
2023-08-29T13:21:41.736Z,33.45
2023-08-29T13:26:43.894Z,33.37
2023-08-29T13:31:47.187Z,33.31
2023-08-29T13:36:50.108Z,33.06
2023-08-29T13:41:52.862Z,32.85
2023-08-29T13:46:55.504Z,33.03
2023-08-29T13:52:00.871Z,33.09
2023-08-29T13:57:06.578Z,32.79
2023-08-29T14:02:11.131Z,32.57
2023-08-29T14:07:13.910Z,32.51
2023-08-29T14:12:16.654Z,32.61
2023-08-29T14:17:19.827Z,32.56
2023-08-29T14:22:22.010Z,32.65
2023-08-29T14:27:24.715Z,32.97
2023-08-29T14:32:27.535Z,32.95
2023-08-29T14:37:29.898Z,33.28
2023-08-29T14:42:32.719Z,32.95
2023-08-29T14:47:36.309Z,32.36
2023-08-29T14:52:39.682Z,32.34
2023-08-29T14:57:42.311Z,32.34
2023-08-29T15:02:46.036Z,31.98
2023-08-29T15:07:48.965Z,31.88
2023-08-29T15:12:51.717Z,31.74
2023-08-29T15:17:54.523Z,31.50
2023-08-29T15:22:57.280Z,31.29
2023-08-29T15:27:59.917Z,31.00
2023-08-29T15:33:02.846Z,30.59
2023-08-29T15:38:05.788Z,30.18
2023-08-29T15:43:08.399Z,30.07
2023-08-29T15:48:11.164Z,29.66
2023-08-29T15:53:15.153Z,29.53
2023-08-29T15:58:18.985Z,28.99
2023-08-29T16:03:22.619Z,28.48
2023-08-29T16:08:26.823Z,28.31
2023-08-29T16:13:29.676Z,27.80
2023-08-29T16:18:32.680Z,27.48
2023-08-29T16:23:35.466Z,27.37
2023-08-29T16:28:38.236Z,27.01
2023-08-29T16:33:41.418Z,26.73
2023-08-29T16:38:44.408Z,26.54
2023-08-29T16:43:47.130Z,26.19
2023-08-29T16:48:49.810Z,25.94
2023-08-29T16:53:52.510Z,25.94
2023-08-29T16:58:55.276Z,25.37
2023-08-29T17:03:57.987Z,25.37
2023-08-29T17:09:00.149Z,25.22
2023-08-29T17:14:03.781Z,24.98
2023-08-29T17:19:07.150Z,24.79
2023-08-29T17:24:09.609Z,24.99
2023-08-29T17:29:12.257Z,25.59
2023-08-29T17:34:15.386Z,25.61
2023-08-29T17:39:17.681Z,26.11
2023-08-29T17:44:20.531Z,26.66
2023-08-29T17:49:23.435Z,27.21
2023-08-29T17:54:26.454Z,27.04
2023-08-29T17:59:29.142Z,27.19
2023-08-29T18:04:31.728Z,27.25
2023-08-29T18:09:34.009Z,27.29
2023-08-29T18:14:36.206Z,27.18
2023-08-29T18:19:38.767Z,26.95
2023-08-29T18:24:41.372Z,26.34
2023-08-29T18:29:43.572Z,26.33
2023-08-29T18:34:45.834Z,26.25
2023-08-29T18:39:48.046Z,25.60
2023-08-29T18:44:50.624Z,25.71
2023-08-29T18:49:53.611Z,25.66
2023-08-29T18:54:58.306Z,25.45
2023-08-29T19:00:00.814Z,24.95
2023-08-29T19:05:05.118Z,24.65
2023-08-29T19:10:08.753Z,24.50
2023-08-29T19:15:11.547Z,24.19
2023-08-29T19:20:14.130Z,23.92
2023-08-29T19:25:18.224Z,23.84
2023-08-29T19:30:20.974Z,23.55
2023-08-29T19:35:23.266Z,23.45
2023-08-29T19:40:26.183Z,23.25
2023-08-29T19:45:29.664Z,23.12
2023-08-29T19:50:32.360Z,22.84
2023-08-29T19:55:37.415Z,22.91
2023-08-29T20:00:40.854Z,22.94
2023-08-29T20:05:45.812Z,22.56
2023-08-29T20:10:48.463Z,22.35
2023-08-29T20:15:52.195Z,22.42
2023-08-29T20:20:54.882Z,22.21
2023-08-29T20:25:57.857Z,22.06
2023-08-29T20:31:00.433Z,21.75
2023-08-29T20:36:03.002Z,21.63
2023-08-29T20:41:05.686Z,21.96
2023-08-29T20:46:08.718Z,23.16
2023-08-29T20:51:11.075Z,23.59
2023-08-29T20:56:13.838Z,24.00
2023-08-29T21:01:16.951Z,24.37
2023-08-29T21:06:21.485Z,24.51
2023-08-29T21:11:24.509Z,24.55
2023-08-29T21:16:27.211Z,24.42
2023-08-29T21:21:29.545Z,24.17
2023-08-29T21:26:32.908Z,23.99
2023-08-29T21:31:35.675Z,23.63
2023-08-29T21:36:39.689Z,23.27
2023-08-29T21:41:42.389Z,23.25
2023-08-29T21:46:45.269Z,23.17
2023-08-29T21:51:48.685Z,22.98
2023-08-29T21:56:51.327Z,22.84
2023-08-29T22:01:54.826Z,22.97
2023-08-29T22:06:57.444Z,22.85
2023-08-29T22:12:00.131Z,22.72
2023-08-29T22:17:03.285Z,22.49
2023-08-29T22:22:05.984Z,22.39
2023-08-29T22:27:08.577Z,22.27
2023-08-29T22:32:11.724Z,22.13
2023-08-29T22:37:14.873Z,21.88
2023-08-29T22:42:18.009Z,21.93
2023-08-29T22:47:20.985Z,21.84
2023-08-29T22:52:24.740Z,21.85
2023-08-29T22:57:27.506Z,21.16
2023-08-29T23:02:29.679Z,20.94
2023-08-29T23:07:32.378Z,21.01
2023-08-29T23:12:35.199Z,20.91
2023-08-29T23:17:38.097Z,21.11
2023-08-29T23:22:40.330Z,21.30
2023-08-29T23:27:42.993Z,21.38
2023-08-29T23:32:49.617Z,21.55
2023-08-29T23:37:52.446Z,21.58
2023-08-29T23:42:54.591Z,21.49
2023-08-29T23:47:57.194Z,21.48
2023-08-29T23:53:00.528Z,21.41
2023-08-29T23:58:03.434Z,20.92
